sensor_id;sensor_type;location;lat;lon;timestamp;temperature;humidity
37806;DHT22;25082;50.870;0.022;2023-03-21T00:01:14;19.60;61.80
37806;DHT22;25082;50.870;0.022;2023-03-21T00:03:40;19.60;61.80
37806;DHT22;25082;50.870;0.022;2023-03-21T00:06:10;19.60;61.80
37806;DHT22;25082;50.870;0.022;2023-03-21T00:08:36;19.60;61.80
37806;DHT22;25082;50.870;0.022;2023-03-21T00:11:04;19.60;61.80
37806;DHT22;25082;50.870;0.022;2023-03-21T00:13:31;19.60;61.80
37806;DHT22;25082;50.870;0.022;2023-03-21T00:16:11;19.60;61.80
37806;DHT22;25082;50.870;0.022;2023-03-21T00:18:41;19.50;61.80
37806;DHT22;25082;50.870;0.022;2023-03-21T00:21:09;19.60;61.80
37806;DHT22;25082;50.870;0.022;2023-03-21T00:23:35;19.50;61.70
37806;DHT22;25082;50.870;0.022;2023-03-21T00:26:01;19.60;61.70
37806;DHT22;25082;50.870;0.022;2023-03-21T00:28:27;19.50;61.70
37806;DHT22;25082;50.870;0.022;2023-03-21T00:30:57;19.60;61.80
37806;DHT22;25082;50.870;0.022;2023-03-21T00:33:24;19.50;61.90
37806;DHT22;25082;50.870;0.022;2023-03-21T00:35:50;19.50;61.90
37806;DHT22;25082;50.870;0.022;2023-03-21T00:38:17;19.50;61.90
37806;DHT22;25082;50.870;0.022;2023-03-21T00:40:43;19.50;61.90
37806;DHT22;25082;50.870;0.022;2023-03-21T00:43:09;19.40;61.90
37806;DHT22;25082;50.870;0.022;2023-03-21T00:45:49;19.50;61.90
37806;DHT22;25082;50.870;0.022;2023-03-21T00:48:16;19.40;61.80
37806;DHT22;25082;50.870;0.022;2023-03-21T00:50:44;19.50;61.90
37806;DHT22;25082;50.870;0.022;2023-03-21T00:53:11;19.40;61.90
37806;DHT22;25082;50.870;0.022;2023-03-21T00:55:37;19.40;61.80
37806;DHT22;25082;50.870;0.022;2023-03-21T00:58:04;19.40;61.90
37806;DHT22;25082;50.870;0.022;2023-03-21T01:00:30;19.40;61.90
37806;DHT22;25082;50.870;0.022;2023-03-21T01:02:57;19.40;61.90
37806;DHT22;25082;50.870;0.022;2023-03-21T01:05:32;19.40;61.80
37806;DHT22;25082;50.870;0.022;2023-03-21T01:08:17;19.30;61.80
37806;DHT22;25082;50.870;0.022;2023-03-21T01:10:46;19.30;61.80
37806;DHT22;25082;50.870;0.022;2023-03-21T01:13:14;19.30;61.70
37806;DHT22;25082;50.870;0.022;2023-03-21T01:15:45;19.30;61.70
37806;DHT22;25082;50.870;0.022;2023-03-21T01:18:12;19.30;61.70
37806;DHT22;25082;50.870;0.022;2023-03-21T01:20:40;19.30;61.70
37806;DHT22;25082;50.870;0.022;2023-03-21T01:23:06;19.30;61.70
37806;DHT22;25082;50.870;0.022;2023-03-21T01:25:32;19.30;61.70
37806;DHT22;25082;50.870;0.022;2023-03-21T01:27:58;19.30;61.70
37806;DHT22;25082;50.870;0.022;2023-03-21T01:30:24;19.30;61.70
37806;DHT22;25082;50.870;0.022;2023-03-21T01:32:50;19.30;61.70
37806;DHT22;25082;50.870;0.022;2023-03-21T01:35:16;19.30;61.70
37806;DHT22;25082;50.870;0.022;2023-03-21T01:37:42;19.20;61.60
37806;DHT22;25082;50.870;0.022;2023-03-21T01:40:10;19.20;61.60
37806;DHT22;25082;50.870;0.022;2023-03-21T01:42:38;19.20;61.60
37806;DHT22;25082;50.870;0.022;2023-03-21T01:48:08;19.20;61.60
37806;DHT22;25082;50.870;0.022;2023-03-21T01:50:34;19.20;61.50
37806;DHT22;25082;50.870;0.022;2023-03-21T01:53:01;19.20;61.50
37806;DHT22;25082;50.870;0.022;2023-03-21T01:55:28;19.20;61.50
37806;DHT22;25082;50.870;0.022;2023-03-21T01:57:55;19.20;61.50
37806;DHT22;25082;50.870;0.022;2023-03-21T02:00:23;19.10;61.40
37806;DHT22;25082;50.870;0.022;2023-03-21T02:02:52;19.10;61.40
37806;DHT22;25082;50.870;0.022;2023-03-21T02:05:43;19.20;61.50
37806;DHT22;25082;50.870;0.022;2023-03-21T02:08:12;19.10;61.40
37806;DHT22;25082;50.870;0.022;2023-03-21T02:10:40;19.10;61.50
37806;DHT22;25082;50.870;0.022;2023-03-21T02:13:07;19.10;61.50
37806;DHT22;25082;50.870;0.022;2023-03-21T02:15:40;19.10;61.50
37806;DHT22;25082;50.870;0.022;2023-03-21T02:18:30;19.10;61.40
37806;DHT22;25082;50.870;0.022;2023-03-21T02:28:46;19.00;61.40
37806;DHT22;25082;50.870;0.022;2023-03-21T02:37:08;19.00;61.40
37806;DHT22;25082;50.870;0.022;2023-03-21T02:45:19;19.00;61.40
37806;DHT22;25082;50.870;0.022;2023-03-21T02:47:49;19.00;61.40
37806;DHT22;25082;50.870;0.022;2023-03-21T02:52:57;18.90;61.30
37806;DHT22;25082;50.870;0.022;2023-03-21T02:55:26;19.00;61.30
37806;DHT22;25082;50.870;0.022;2023-03-21T02:57:54;18.90;61.30
37806;DHT22;25082;50.870;0.022;2023-03-21T03:00:27;18.90;61.20
37806;DHT22;25082;50.870;0.022;2023-03-21T03:02:54;18.90;61.20
37806;DHT22;25082;50.870;0.022;2023-03-21T03:05:23;18.90;61.20
37806;DHT22;25082;50.870;0.022;2023-03-21T03:08:14;18.90;61.20
37806;DHT22;25082;50.870;0.022;2023-03-21T03:16:43;18.90;61.20
37806;DHT22;25082;50.870;0.022;2023-03-21T03:19:24;18.90;61.20
37806;DHT22;25082;50.870;0.022;2023-03-21T03:21:59;18.90;61.20
37806;DHT22;25082;50.870;0.022;2023-03-21T03:24:30;18.90;61.20
37806;DHT22;25082;50.870;0.022;2023-03-21T03:27:25;18.80;61.10
37806;DHT22;25082;50.870;0.022;2023-03-21T03:29:56;18.80;61.10
37806;DHT22;25082;50.870;0.022;2023-03-21T03:32:33;18.80;61.10
37806;DHT22;25082;50.870;0.022;2023-03-21T03:35:00;18.80;61.10
37806;DHT22;25082;50.870;0.022;2023-03-21T03:37:31;18.80;61.10
37806;DHT22;25082;50.870;0.022;2023-03-21T03:45:08;18.80;61.10
37806;DHT22;25082;50.870;0.022;2023-03-21T03:47:39;18.70;61.10
37806;DHT22;25082;50.870;0.022;2023-03-21T03:52:37;18.70;61.10
37806;DHT22;25082;50.870;0.022;2023-03-21T03:55:04;18.80;61.10
37806;DHT22;25082;50.870;0.022;2023-03-21T03:57:30;18.70;61.10
37806;DHT22;25082;50.870;0.022;2023-03-21T03:59:57;18.70;61.10
37806;DHT22;25082;50.870;0.022;2023-03-21T04:02:23;18.70;61.10
37806;DHT22;25082;50.870;0.022;2023-03-21T04:04:48;18.70;61.10
37806;DHT22;25082;50.870;0.022;2023-03-21T04:07:18;18.70;61.10
37806;DHT22;25082;50.870;0.022;2023-03-21T04:09:44;18.70;61.10
37806;DHT22;25082;50.870;0.022;2023-03-21T04:12:10;18.70;61.10
37806;DHT22;25082;50.870;0.022;2023-03-21T04:14:37;18.70;61.10
37806;DHT22;25082;50.870;0.022;2023-03-21T04:17:03;18.60;61.00
37806;DHT22;25082;50.870;0.022;2023-03-21T04:19:28;18.60;61.00
37806;DHT22;25082;50.870;0.022;2023-03-21T04:21:54;18.60;61.00
37806;DHT22;25082;50.870;0.022;2023-03-21T04:24:20;18.60;61.10
37806;DHT22;25082;50.870;0.022;2023-03-21T04:26:46;18.60;61.00
37806;DHT22;25082;50.870;0.022;2023-03-21T04:29:12;18.60;61.10
37806;DHT22;25082;50.870;0.022;2023-03-21T04:31:38;18.60;61.00
37806;DHT22;25082;50.870;0.022;2023-03-21T04:34:06;18.70;61.10
37806;DHT22;25082;50.870;0.022;2023-03-21T04:36:35;18.60;61.00
37806;DHT22;25082;50.870;0.022;2023-03-21T04:39:08;18.60;61.10
37806;DHT22;25082;50.870;0.022;2023-03-21T04:41:41;18.60;61.00
37806;DHT22;25082;50.870;0.022;2023-03-21T04:44:07;18.60;61.00
37806;DHT22;25082;50.870;0.022;2023-03-21T04:46:34;18.60;61.00
37806;DHT22;25082;50.870;0.022;2023-03-21T04:49:01;18.60;61.00
37806;DHT22;25082;50.870;0.022;2023-03-21T04:51:26;18.60;61.00
37806;DHT22;25082;50.870;0.022;2023-03-21T04:53:52;18.50;61.00
37806;DHT22;25082;50.870;0.022;2023-03-21T04:56:24;18.50;61.00
37806;DHT22;25082;50.870;0.022;2023-03-21T04:59:00;18.50;61.00
37806;DHT22;25082;50.870;0.022;2023-03-21T05:01:26;18.50;60.90
37806;DHT22;25082;50.870;0.022;2023-03-21T05:03:58;18.50;60.90
37806;DHT22;25082;50.870;0.022;2023-03-21T05:06:24;18.50;60.90
37806;DHT22;25082;50.870;0.022;2023-03-21T05:08:52;18.50;61.00
37806;DHT22;25082;50.870;0.022;2023-03-21T05:11:18;18.50;61.00
37806;DHT22;25082;50.870;0.022;2023-03-21T05:13:44;18.50;61.00
37806;DHT22;25082;50.870;0.022;2023-03-21T05:16:10;18.50;60.90
37806;DHT22;25082;50.870;0.022;2023-03-21T05:18:36;18.50;60.90
37806;DHT22;25082;50.870;0.022;2023-03-21T05:21:04;18.50;60.90
37806;DHT22;25082;50.870;0.022;2023-03-21T05:23:32;18.50;60.90
37806;DHT22;25082;50.870;0.022;2023-03-21T05:26:06;18.50;60.90
37806;DHT22;25082;50.870;0.022;2023-03-21T05:28:33;18.40;60.90
37806;DHT22;25082;50.870;0.022;2023-03-21T05:31:02;18.40;60.90
37806;DHT22;25082;50.870;0.022;2023-03-21T05:33:28;18.40;60.90
37806;DHT22;25082;50.870;0.022;2023-03-21T05:35:54;18.40;60.90
37806;DHT22;25082;50.870;0.022;2023-03-21T05:38:20;18.40;60.90
37806;DHT22;25082;50.870;0.022;2023-03-21T05:40:47;18.40;60.90
37806;DHT22;25082;50.870;0.022;2023-03-21T05:43:13;18.40;60.90
37806;DHT22;25082;50.870;0.022;2023-03-21T05:45:38;18.40;60.90
37806;DHT22;25082;50.870;0.022;2023-03-21T05:48:04;18.40;60.90
37806;DHT22;25082;50.870;0.022;2023-03-21T05:50:31;18.40;60.90
37806;DHT22;25082;50.870;0.022;2023-03-21T05:52:56;18.40;60.90
37806;DHT22;25082;50.870;0.022;2023-03-21T05:55:22;18.30;60.90
37806;DHT22;25082;50.870;0.022;2023-03-21T05:57:48;18.40;60.90
37806;DHT22;25082;50.870;0.022;2023-03-21T06:00:14;18.30;60.90
37806;DHT22;25082;50.870;0.022;2023-03-21T06:02:40;18.40;61.50
37806;DHT22;25082;50.870;0.022;2023-03-21T06:05:06;18.40;60.90
37806;DHT22;25082;50.870;0.022;2023-03-21T06:07:33;18.40;61.00
37806;DHT22;25082;50.870;0.022;2023-03-21T06:10:00;18.30;60.90
37806;DHT22;25082;50.870;0.022;2023-03-21T06:12:25;18.30;60.90
37806;DHT22;25082;50.870;0.022;2023-03-21T06:14:51;18.30;60.90
37806;DHT22;25082;50.870;0.022;2023-03-21T06:17:17;18.30;60.90
37806;DHT22;25082;50.870;0.022;2023-03-21T06:19:42;18.30;60.90
37806;DHT22;25082;50.870;0.022;2023-03-21T06:22:08;18.30;60.90
37806;DHT22;25082;50.870;0.022;2023-03-21T06:24:34;18.30;60.90
37806;DHT22;25082;50.870;0.022;2023-03-21T06:27:00;18.30;60.90
37806;DHT22;25082;50.870;0.022;2023-03-21T06:29:25;18.30;60.90
37806;DHT22;25082;50.870;0.022;2023-03-21T06:31:51;18.30;60.90
37806;DHT22;25082;50.870;0.022;2023-03-21T06:34:17;18.20;60.90
37806;DHT22;25082;50.870;0.022;2023-03-21T06:36:42;18.30;60.90
37806;DHT22;25082;50.870;0.022;2023-03-21T06:39:09;18.20;60.90
37806;DHT22;25082;50.870;0.022;2023-03-21T06:41:35;18.20;60.90
37806;DHT22;25082;50.870;0.022;2023-03-21T06:44:01;18.20;60.90
37806;DHT22;25082;50.870;0.022;2023-03-21T06:46:27;18.20;60.90
37806;DHT22;25082;50.870;0.022;2023-03-21T06:48:52;18.20;60.90
37806;DHT22;25082;50.870;0.022;2023-03-21T06:51:18;18.20;61.40
37806;DHT22;25082;50.870;0.022;2023-03-21T06:53:44;18.20;60.80
37806;DHT22;25082;50.870;0.022;2023-03-21T06:56:12;18.20;60.80
37806;DHT22;25082;50.870;0.022;2023-03-21T06:58:39;18.20;60.80
37806;DHT22;25082;50.870;0.022;2023-03-21T07:01:06;18.20;60.80
37806;DHT22;25082;50.870;0.022;2023-03-21T07:03:32;18.20;60.70
37806;DHT22;25082;50.870;0.022;2023-03-21T07:06:03;18.20;60.70
37806;DHT22;25082;50.870;0.022;2023-03-21T07:08:29;18.30;60.60
37806;DHT22;25082;50.870;0.022;2023-03-21T07:10:55;18.30;60.50
37806;DHT22;25082;50.870;0.022;2023-03-21T07:13:22;18.30;61.10
37806;DHT22;25082;50.870;0.022;2023-03-21T07:15:48;18.30;60.50
37806;DHT22;25082;50.870;0.022;2023-03-21T07:18:13;18.30;60.50
37806;DHT22;25082;50.870;0.022;2023-03-21T07:20:39;18.30;60.50
37806;DHT22;25082;50.870;0.022;2023-03-21T07:23:05;18.40;60.60
37806;DHT22;25082;50.870;0.022;2023-03-21T07:25:32;18.40;60.60
37806;DHT22;25082;50.870;0.022;2023-03-21T07:27:57;18.40;60.60
37806;DHT22;25082;50.870;0.022;2023-03-21T07:30:23;18.40;60.60
37806;DHT22;25082;50.870;0.022;2023-03-21T07:32:49;18.40;60.60
37806;DHT22;25082;50.870;0.022;2023-03-21T07:35:16;18.40;60.60
37806;DHT22;25082;50.870;0.022;2023-03-21T07:37:42;18.40;60.60
37806;DHT22;25082;50.870;0.022;2023-03-21T07:40:09;18.50;60.70
37806;DHT22;25082;50.870;0.022;2023-03-21T07:42:36;18.50;60.70
37806;DHT22;25082;50.870;0.022;2023-03-21T07:45:03;18.50;60.70
37806;DHT22;25082;50.870;0.022;2023-03-21T07:47:30;18.50;60.80
37806;DHT22;25082;50.870;0.022;2023-03-21T07:49:56;18.50;60.70
37806;DHT22;25082;50.870;0.022;2023-03-21T07:52:22;18.50;60.80
37806;DHT22;25082;50.870;0.022;2023-03-21T07:54:48;18.50;60.80
37806;DHT22;25082;50.870;0.022;2023-03-21T07:57:14;18.50;60.80
37806;DHT22;25082;50.870;0.022;2023-03-21T07:59:39;18.60;60.90
37806;DHT22;25082;50.870;0.022;2023-03-21T08:02:05;18.60;60.90
37806;DHT22;25082;50.870;0.022;2023-03-21T08:04:31;18.60;61.00
37806;DHT22;25082;50.870;0.022;2023-03-21T08:06:59;18.60;61.00
37806;DHT22;25082;50.870;0.022;2023-03-21T08:09:24;18.60;61.00
37806;DHT22;25082;50.870;0.022;2023-03-21T08:11:50;18.60;61.00
37806;DHT22;25082;50.870;0.022;2023-03-21T08:14:16;18.60;61.10
37806;DHT22;25082;50.870;0.022;2023-03-21T08:16:41;18.60;61.10
37806;DHT22;25082;50.870;0.022;2023-03-21T08:19:07;18.60;61.10
37806;DHT22;25082;50.870;0.022;2023-03-21T08:21:33;18.60;61.10
37806;DHT22;25082;50.870;0.022;2023-03-21T08:23:59;18.70;61.20
37806;DHT22;25082;50.870;0.022;2023-03-21T08:26:24;18.70;61.20
37806;DHT22;25082;50.870;0.022;2023-03-21T08:28:51;18.70;61.20
37806;DHT22;25082;50.870;0.022;2023-03-21T08:31:17;18.70;61.30
37806;DHT22;25082;50.870;0.022;2023-03-21T08:33:42;18.70;61.30
37806;DHT22;25082;50.870;0.022;2023-03-21T08:36:09;18.70;61.30
37806;DHT22;25082;50.870;0.022;2023-03-21T08:38:35;18.80;61.40
37806;DHT22;25082;50.870;0.022;2023-03-21T08:41:01;18.80;61.40
37806;DHT22;25082;50.870;0.022;2023-03-21T08:43:28;18.80;61.40
37806;DHT22;25082;50.870;0.022;2023-03-21T08:45:55;18.80;61.40
37806;DHT22;25082;50.870;0.022;2023-03-21T08:48:21;18.80;61.50
37806;DHT22;25082;50.870;0.022;2023-03-21T08:50:47;18.80;61.50
37806;DHT22;25082;50.870;0.022;2023-03-21T08:53:12;18.80;61.50
37806;DHT22;25082;50.870;0.022;2023-03-21T08:55:38;18.90;61.60
37806;DHT22;25082;50.870;0.022;2023-03-21T08:58:04;18.90;61.60
37806;DHT22;25082;50.870;0.022;2023-03-21T09:00:30;18.90;61.60
37806;DHT22;25082;50.870;0.022;2023-03-21T09:02:56;18.90;61.60
37806;DHT22;25082;50.870;0.022;2023-03-21T09:05:23;18.90;61.60
37806;DHT22;25082;50.870;0.022;2023-03-21T09:07:51;18.90;61.70
37806;DHT22;25082;50.870;0.022;2023-03-21T09:10:20;18.90;61.70
37806;DHT22;25082;50.870;0.022;2023-03-21T09:12:47;19.00;61.80
37806;DHT22;25082;50.870;0.022;2023-03-21T09:15:13;19.00;61.80
37806;DHT22;25082;50.870;0.022;2023-03-21T09:17:39;19.00;61.90
37806;DHT22;25082;50.870;0.022;2023-03-21T09:20:11;19.00;61.90
37806;DHT22;25082;50.870;0.022;2023-03-21T09:22:46;19.00;61.90
37806;DHT22;25082;50.870;0.022;2023-03-21T09:25:14;19.00;61.90
37806;DHT22;25082;50.870;0.022;2023-03-21T09:27:40;19.00;61.90
37806;DHT22;25082;50.870;0.022;2023-03-21T09:30:09;19.00;61.90
37806;DHT22;25082;50.870;0.022;2023-03-21T09:32:36;19.10;61.90
37806;DHT22;25082;50.870;0.022;2023-03-21T09:35:02;19.10;62.00
37806;DHT22;25082;50.870;0.022;2023-03-21T09:37:30;19.10;62.50
37806;DHT22;25082;50.870;0.022;2023-03-21T09:39:58;19.10;62.20
37806;DHT22;25082;50.870;0.022;2023-03-21T09:42:54;19.10;62.40
37806;DHT22;25082;50.870;0.022;2023-03-21T09:48:04;19.10;63.10
37806;DHT22;25082;50.870;0.022;2023-03-21T09:50:34;19.00;63.30
37806;DHT22;25082;50.870;0.022;2023-03-21T09:53:24;19.10;63.40
37806;DHT22;25082;50.870;0.022;2023-03-21T09:55:52;19.10;63.70
37806;DHT22;25082;50.870;0.022;2023-03-21T09:58:27;19.10;63.80
37806;DHT22;25082;50.870;0.022;2023-03-21T10:03:31;19.10;63.80
37806;DHT22;25082;50.870;0.022;2023-03-21T10:06:09;19.10;63.80
37806;DHT22;25082;50.870;0.022;2023-03-21T10:08:39;19.10;63.80
37806;DHT22;25082;50.870;0.022;2023-03-21T10:13:36;19.10;63.80
37806;DHT22;25082;50.870;0.022;2023-03-21T10:16:32;19.10;63.80
37806;DHT22;25082;50.870;0.022;2023-03-21T10:19:03;19.10;63.90
37806;DHT22;25082;50.870;0.022;2023-03-21T10:21:32;19.10;63.80
37806;DHT22;25082;50.870;0.022;2023-03-21T10:23:58;19.10;63.70
37806;DHT22;25082;50.870;0.022;2023-03-21T10:26:26;19.10;63.70
37806;DHT22;25082;50.870;0.022;2023-03-21T10:28:55;19.10;63.60
37806;DHT22;25082;50.870;0.022;2023-03-21T10:31:24;19.10;63.10
37806;DHT22;25082;50.870;0.022;2023-03-21T10:33:53;19.00;62.60
37806;DHT22;25082;50.870;0.022;2023-03-21T10:36:25;19.00;62.70
37806;DHT22;25082;50.870;0.022;2023-03-21T10:39:19;19.00;63.10
37806;DHT22;25082;50.870;0.022;2023-03-21T10:41:40;19.00;63.50
37806;DHT22;25082;50.870;0.022;2023-03-21T10:44:12;19.00;63.80
37806;DHT22;25082;50.870;0.022;2023-03-21T10:46:51;19.00;63.90
37806;DHT22;25082;50.870;0.022;2023-03-21T10:49:17;19.10;64.20
37806;DHT22;25082;50.870;0.022;2023-03-21T10:51:44;19.10;64.30
37806;DHT22;25082;50.870;0.022;2023-03-21T10:54:15;19.10;64.40
37806;DHT22;25082;50.870;0.022;2023-03-21T10:56:54;19.10;64.50
37806;DHT22;25082;50.870;0.022;2023-03-21T10:59:21;19.20;64.60
37806;DHT22;25082;50.870;0.022;2023-03-21T11:01:51;19.20;64.60
37806;DHT22;25082;50.870;0.022;2023-03-21T11:04:29;19.20;64.70
37806;DHT22;25082;50.870;0.022;2023-03-21T11:06:57;19.20;64.80
37806;DHT22;25082;50.870;0.022;2023-03-21T11:09:26;19.20;64.80
37806;DHT22;25082;50.870;0.022;2023-03-21T11:12:18;19.20;64.90
37806;DHT22;25082;50.870;0.022;2023-03-21T11:14:52;19.20;65.30
37806;DHT22;25082;50.870;0.022;2023-03-21T11:17:19;19.30;65.40
37806;DHT22;25082;50.870;0.022;2023-03-21T11:19:51;19.30;65.30
37806;DHT22;25082;50.870;0.022;2023-03-21T11:22:20;19.30;65.30
37806;DHT22;25082;50.870;0.022;2023-03-21T11:24:52;19.30;65.20
37806;DHT22;25082;50.870;0.022;2023-03-21T11:27:18;19.30;65.20
37806;DHT22;25082;50.870;0.022;2023-03-21T11:29:47;19.30;65.30
37806;DHT22;25082;50.870;0.022;2023-03-21T11:35:04;19.30;65.20
37806;DHT22;25082;50.870;0.022;2023-03-21T11:37:37;19.30;65.30
37806;DHT22;25082;50.870;0.022;2023-03-21T11:40:22;19.30;65.20
37806;DHT22;25082;50.870;0.022;2023-03-21T11:42:59;19.30;65.20
37806;DHT22;25082;50.870;0.022;2023-03-21T11:45:28;19.30;65.30
37806;DHT22;25082;50.870;0.022;2023-03-21T11:47:57;19.30;65.30
37806;DHT22;25082;50.870;0.022;2023-03-21T11:50:36;19.30;65.30
37806;DHT22;25082;50.870;0.022;2023-03-21T11:53:19;19.30;65.30
37806;DHT22;25082;50.870;0.022;2023-03-21T11:56:07;19.30;65.40
37806;DHT22;25082;50.870;0.022;2023-03-21T11:58:52;19.30;65.40
37806;DHT22;25082;50.870;0.022;2023-03-21T12:04:39;19.30;65.40
37806;DHT22;25082;50.870;0.022;2023-03-21T12:15:47;19.50;65.60
37806;DHT22;25082;50.870;0.022;2023-03-21T12:21:14;19.50;65.60
37806;DHT22;25082;50.870;0.022;2023-03-21T12:26:25;19.60;65.60
37806;DHT22;25082;50.870;0.022;2023-03-21T12:31:57;19.60;65.50
37806;DHT22;25082;50.870;0.022;2023-03-21T12:35:16;19.60;65.50
37806;DHT22;25082;50.870;0.022;2023-03-21T12:41:55;19.60;65.60
37806;DHT22;25082;50.870;0.022;2023-03-21T12:43:54;19.60;65.60
37806;DHT22;25082;50.870;0.022;2023-03-21T12:49:15;19.50;65.70
37806;DHT22;25082;50.870;0.022;2023-03-21T12:51:46;19.60;65.70
37806;DHT22;25082;50.870;0.022;2023-03-21T12:54:25;19.50;65.70
37806;DHT22;25082;50.870;0.022;2023-03-21T12:56:57;19.50;65.60
37806;DHT22;25082;50.870;0.022;2023-03-21T12:59:38;19.50;65.60
37806;DHT22;25082;50.870;0.022;2023-03-21T13:02:20;19.50;65.50
37806;DHT22;25082;50.870;0.022;2023-03-21T13:04:51;19.50;65.50
37806;DHT22;25082;50.870;0.022;2023-03-21T13:07:21;19.60;65.60
37806;DHT22;25082;50.870;0.022;2023-03-21T13:09:47;19.60;65.60
37806;DHT22;25082;50.870;0.022;2023-03-21T13:18:12;19.60;65.50
37806;DHT22;25082;50.870;0.022;2023-03-21T13:20:48;19.60;65.50
37806;DHT22;25082;50.870;0.022;2023-03-21T13:23:17;19.60;65.40
37806;DHT22;25082;50.870;0.022;2023-03-21T13:25:48;19.60;65.50
37806;DHT22;25082;50.870;0.022;2023-03-21T13:28:21;19.60;65.50
37806;DHT22;25082;50.870;0.022;2023-03-21T13:30:48;19.60;65.40
37806;DHT22;25082;50.870;0.022;2023-03-21T13:33:24;19.60;65.30
37806;DHT22;25082;50.870;0.022;2023-03-21T13:36:15;19.60;65.30
37806;DHT22;25082;50.870;0.022;2023-03-21T13:38:49;19.60;65.30
37806;DHT22;25082;50.870;0.022;2023-03-21T13:41:16;19.60;65.30
37806;DHT22;25082;50.870;0.022;2023-03-21T13:43:53;19.60;65.30
37806;DHT22;25082;50.870;0.022;2023-03-21T13:51:50;19.70;65.20
37806;DHT22;25082;50.870;0.022;2023-03-21T14:04:36;19.80;64.70
37806;DHT22;25082;50.870;0.022;2023-03-21T14:07:07;19.70;63.60
37806;DHT22;25082;50.870;0.022;2023-03-21T14:09:44;19.60;62.80
37806;DHT22;25082;50.870;0.022;2023-03-21T14:12:15;19.60;62.50
37806;DHT22;25082;50.870;0.022;2023-03-21T14:14:45;19.60;63.10
37806;DHT22;25082;50.870;0.022;2023-03-21T14:17:22;19.60;63.20
37806;DHT22;25082;50.870;0.022;2023-03-21T14:20:10;19.60;63.40
37806;DHT22;25082;50.870;0.022;2023-03-21T14:22:40;19.60;63.70
37806;DHT22;25082;50.870;0.022;2023-03-21T14:25:14;19.60;63.90
37806;DHT22;25082;50.870;0.022;2023-03-21T14:27:43;19.60;64.00
37806;DHT22;25082;50.870;0.022;2023-03-21T14:30:29;19.70;64.20
37806;DHT22;25082;50.870;0.022;2023-03-21T14:33:02;19.60;64.20
37806;DHT22;25082;50.870;0.022;2023-03-21T14:35:30;19.60;64.30
37806;DHT22;25082;50.870;0.022;2023-03-21T14:38:03;19.70;64.50
37806;DHT22;25082;50.870;0.022;2023-03-21T14:40:29;19.70;63.80
37806;DHT22;25082;50.870;0.022;2023-03-21T14:42:55;19.60;62.50
37806;DHT22;25082;50.870;0.022;2023-03-21T14:45:24;19.60;62.40
37806;DHT22;25082;50.870;0.022;2023-03-21T14:53:01;19.50;62.90
37806;DHT22;25082;50.870;0.022;2023-03-21T14:55:27;19.50;63.20
37806;DHT22;25082;50.870;0.022;2023-03-21T14:57:54;19.50;63.30
37806;DHT22;25082;50.870;0.022;2023-03-21T15:00:26;19.60;63.60
37806;DHT22;25082;50.870;0.022;2023-03-21T15:02:54;19.60;63.80
37806;DHT22;25082;50.870;0.022;2023-03-21T15:05:29;19.50;63.90
37806;DHT22;25082;50.870;0.022;2023-03-21T15:07:58;19.60;64.00
37806;DHT22;25082;50.870;0.022;2023-03-21T15:10:26;19.60;64.00
37806;DHT22;25082;50.870;0.022;2023-03-21T15:12:58;19.60;64.10
37806;DHT22;25082;50.870;0.022;2023-03-21T15:15:26;19.60;64.20
37806;DHT22;25082;50.870;0.022;2023-03-21T15:17:54;19.60;64.20
37806;DHT22;25082;50.870;0.022;2023-03-21T15:20:25;19.60;64.20
37806;DHT22;25082;50.870;0.022;2023-03-21T15:23:02;19.60;64.20
37806;DHT22;25082;50.870;0.022;2023-03-21T15:25:33;19.60;64.20
37806;DHT22;25082;50.870;0.022;2023-03-21T15:27:59;19.60;64.30
37806;DHT22;25082;50.870;0.022;2023-03-21T15:30:27;19.60;64.20
37806;DHT22;25082;50.870;0.022;2023-03-21T15:32:55;19.60;64.10
37806;DHT22;25082;50.870;0.022;2023-03-21T15:35:51;19.60;64.10
37806;DHT22;25082;50.870;0.022;2023-03-21T15:38:35;19.60;64.00
37806;DHT22;25082;50.870;0.022;2023-03-21T15:41:26;19.60;64.10
37806;DHT22;25082;50.870;0.022;2023-03-21T15:46:40;19.60;64.10
37806;DHT22;25082;50.870;0.022;2023-03-21T15:49:09;19.60;64.10
37806;DHT22;25082;50.870;0.022;2023-03-21T15:51:54;19.60;64.20
37806;DHT22;25082;50.870;0.022;2023-03-21T15:54:28;19.60;64.20
37806;DHT22;25082;50.870;0.022;2023-03-21T15:56:56;19.60;64.10
37806;DHT22;25082;50.870;0.022;2023-03-21T15:59:29;19.60;64.20
37806;DHT22;25082;50.870;0.022;2023-03-21T16:01:55;19.60;64.20
37806;DHT22;25082;50.870;0.022;2023-03-21T16:04:23;19.60;64.20
37806;DHT22;25082;50.870;0.022;2023-03-21T16:06:57;19.60;64.20
37806;DHT22;25082;50.870;0.022;2023-03-21T16:09:23;19.60;64.10
37806;DHT22;25082;50.870;0.022;2023-03-21T16:11:52;19.60;64.20
37806;DHT22;25082;50.870;0.022;2023-03-21T16:14:19;19.60;64.20
37806;DHT22;25082;50.870;0.022;2023-03-21T16:16:45;19.60;64.20
37806;DHT22;25082;50.870;0.022;2023-03-21T16:19:12;19.60;64.20
37806;DHT22;25082;50.870;0.022;2023-03-21T16:21:38;19.60;64.20
37806;DHT22;25082;50.870;0.022;2023-03-21T16:24:05;19.60;64.10
37806;DHT22;25082;50.870;0.022;2023-03-21T16:26:34;19.60;64.20
37806;DHT22;25082;50.870;0.022;2023-03-21T16:29:01;19.60;64.20
37806;DHT22;25082;50.870;0.022;2023-03-21T16:31:29;19.60;64.10
37806;DHT22;25082;50.870;0.022;2023-03-21T16:33:54;19.40;60.10
37806;DHT22;25082;50.870;0.022;2023-03-21T16:36:29;19.30;61.30
37806;DHT22;25082;50.870;0.022;2023-03-21T16:38:56;19.30;62.90
37806;DHT22;25082;50.870;0.022;2023-03-21T16:41:23;19.30;63.50
37806;DHT22;25082;50.870;0.022;2023-03-21T16:43:50;19.30;63.50
37806;DHT22;25082;50.870;0.022;2023-03-21T16:46:24;19.40;63.60
37806;DHT22;25082;50.870;0.022;2023-03-21T16:48:53;19.40;63.60
37806;DHT22;25082;50.870;0.022;2023-03-21T16:51:33;19.40;63.60
37806;DHT22;25082;50.870;0.022;2023-03-21T16:54:00;19.50;63.70
37806;DHT22;25082;50.870;0.022;2023-03-21T16:56:32;19.50;63.80
37806;DHT22;25082;50.870;0.022;2023-03-21T16:59:00;19.50;63.90
37806;DHT22;25082;50.870;0.022;2023-03-21T17:01:26;19.50;63.80
37806;DHT22;25082;50.870;0.022;2023-03-21T17:03:55;19.50;63.80
37806;DHT22;25082;50.870;0.022;2023-03-21T17:06:24;19.50;63.90
37806;DHT22;25082;50.870;0.022;2023-03-21T17:08:52;19.50;63.90
37806;DHT22;25082;50.870;0.022;2023-03-21T17:11:20;19.50;63.90
37806;DHT22;25082;50.870;0.022;2023-03-21T17:13:48;19.50;63.90
37806;DHT22;25082;50.870;0.022;2023-03-21T17:16:17;19.60;63.90
37806;DHT22;25082;50.870;0.022;2023-03-21T17:18:43;19.60;64.00
37806;DHT22;25082;50.870;0.022;2023-03-21T17:21:16;19.60;64.10
37806;DHT22;25082;50.870;0.022;2023-03-21T17:23:42;19.60;64.10
37806;DHT22;25082;50.870;0.022;2023-03-21T17:26:10;19.60;64.10
37806;DHT22;25082;50.870;0.022;2023-03-21T17:28:37;19.60;64.10
37806;DHT22;25082;50.870;0.022;2023-03-21T17:31:05;19.60;64.00